Time;durP1;ratioP1;P1;durP2;ratioP2;P2;SDS_P1;SDS_P2;PMS_P1;PMS_P2;Temp;Humidity;BMP_temperature;BMP_pressure;BME280_temperature;BME280_humidity;BME280_pressure;Samples;Min_cycle;Max_cycle;Signal;HPM_P1;HPM_P2
2022/09/15 00:03:43;;;;;;;;;;;;;;;16.44;100.00;99123.91;12799933;23;20322;-73
2022/09/15 00:08:46;;;;;;;;;;;;;;;16.47;100.00;99120.31;12799806;23;19928;-71
2022/09/15 00:13:51;;;;;;;;;;;;;;;16.38;100.00;99119.00;12799601;23;20020;-69
2022/09/15 00:18:54;;;;;;;;;;;;;;;16.31;100.00;99112.38;12800147;23;19987;-69
2022/09/15 00:23:58;;;;;;;;;;;;;;;16.28;100.00;99117.78;12799711;23;19999;-71
2022/09/15 00:29:02;;;;;;;;;;;;;;;16.22;100.00;99106.81;12799836;23;19996;-69
2022/09/15 00:34:06;;;;;;;;;;;;;;;16.18;100.00;99106.97;12798828;23;20228;-69
2022/09/15 00:39:09;;;;;;;;;;;;;;;16.16;100.00;99123.69;12799362;23;19920;-69
2022/09/15 00:44:30;;;;;;;;;;;;;;;16.20;100.00;99131.28;12799501;23;19956;-71
2022/09/15 00:49:36;;;;;;;;;;;;;;;16.25;100.00;99130.19;12799583;23;19931;-69
2022/09/15 00:54:42;;;;;;;;;;;;;;;16.26;100.00;99127.50;12799067;23;19991;-71
2022/09/15 00:59:45;;;;;;;;;;;;;;;16.31;100.00;99130.72;12804320;23;20003;-69
2022/09/15 01:04:51;;;;;;;;;;;;;;;16.30;100.00;99115.09;12800477;23;19999;-71
2022/09/15 01:10:02;;;;;;;;;;;;;;;16.36;100.00;99109.53;12806538;23;19924;-70
2022/09/15 01:15:06;;;;;;;;;;;;;;;16.35;100.00;99097.34;12804676;23;20360;-69
2022/09/15 01:20:32;;;;;;;;;;;;;;;16.30;100.00;99097.63;12798866;23;19947;-69
2022/09/15 01:25:48;;;;;;;;;;;;;;;16.38;100.00;99091.94;12798461;23;19924;-69
2022/09/15 01:30:54;;;;;;;;;;;;;;;16.26;100.00;99082.13;12802086;23;19959;-70
2022/09/15 01:36:01;;;;;;;;;;;;;;;16.35;100.00;99079.03;12801203;23;19927;-67
2022/09/15 01:41:08;;;;;;;;;;;;;;;16.32;100.00;99073.97;12800847;23;20003;-67
2022/09/15 01:46:14;;;;;;;;;;;;;;;16.34;100.00;99062.50;12800534;23;19924;-67
2022/09/15 01:51:17;;;;;;;;;;;;;;;16.30;100.00;99065.34;12798095;23;19935;-74
2022/09/15 01:56:20;;;;;;;;;;;;;;;16.41;100.00;99070.84;12803129;23;19951;-69
2022/09/15 02:01:30;;;;;;;;;;;;;;;16.43;100.00;99069.81;12804638;23;19952;-72
2022/09/15 02:06:36;;;;;;;;;;;;;;;16.41;100.00;99063.81;12808560;23;19987;-68
2022/09/15 02:11:46;;;;;;;;;;;;;;;16.36;100.00;99058.00;12807483;23;19947;-71
2022/09/15 02:16:53;;;;;;;;;;;;;;;16.38;100.00;99058.75;12806788;23;20006;-69
2022/09/15 02:21:59;;;;;;;;;;;;;;;16.35;100.00;99047.59;12824939;23;19999;-71
2022/09/15 02:27:03;;;;;;;;;;;;;;;16.34;100.00;99059.88;12825207;23;19932;-68
2022/09/15 02:32:08;;;;;;;;;;;;;;;16.42;100.00;99052.44;12804189;23;20378;-74
2022/09/15 02:37:11;;;;;;;;;;;;;;;16.46;100.00;99035.66;12804125;23;19944;-71
2022/09/15 02:42:23;;;;;;;;;;;;;;;16.47;100.00;99033.88;12803928;23;20312;-74
2022/09/15 02:47:28;;;;;;;;;;;;;;;16.41;100.00;99029.78;12824663;23;19920;-67
2022/09/15 02:52:31;;;;;;;;;;;;;;;16.34;100.00;99025.81;12803875;23;20002;-72
2022/09/15 02:57:34;;;;;;;;;;;;;;;16.50;100.00;99029.31;12803923;23;20000;-75
2022/09/15 03:02:39;;;;;;;;;;;;;;;16.53;100.00;99044.03;12803927;23;20342;-74
2022/09/15 03:07:42;;;;;;;;;;;;;;;16.60;100.00;99037.53;12803576;23;19977;-71
2022/09/15 03:12:46;;;;;;;;;;;;;;;16.56;100.00;99036.00;12804407;23;20316;-69
2022/09/15 03:17:51;;;;;;;;;;;;;;;16.53;100.00;99036.16;12803774;23;20323;-71
2022/09/15 03:22:54;;;;;;;;;;;;;;;16.52;100.00;99030.06;12803359;23;20252;-69
2022/09/15 03:27:57;;;;;;;;;;;;;;;16.50;100.00;99015.38;12803967;23;19948;-72
2022/09/15 03:33:01;;;;;;;;;;;;;;;16.48;100.00;99023.31;12804202;23;19987;-68
2022/09/15 03:38:04;;;;;;;;;;;;;;;16.46;100.00;99019.94;12803613;23;19927;-70
2022/09/15 03:43:07;;;;;;;;;;;;;;;16.45;100.00;99015.59;12803488;23;20348;-71
2022/09/15 03:48:11;;;;;;;;;;;;;;;16.43;100.00;99022.69;12803362;23;20386;-72
2022/09/15 03:53:14;;;;;;;;;;;;;;;16.43;100.00;99027.09;12803302;23;19927;-69
2022/09/15 03:58:18;;;;;;;;;;;;;;;16.35;100.00;99027.50;12803215;23;19921;-68
2022/09/15 04:03:22;;;;;;;;;;;;;;;16.40;100.00;99029.84;12802874;23;19921;-72
2022/09/15 04:08:25;;;;;;;;;;;;;;;16.32;100.00;99027.69;12805591;23;19921;-68
2022/09/15 04:13:28;;;;;;;;;;;;;;;16.35;100.00;99031.88;12806830;23;19935;-70
2022/09/15 04:18:33;;;;;;;;;;;;;;;16.32;100.00;99038.16;12806673;23;19920;-74
2022/09/15 04:23:36;;;;;;;;;;;;;;;16.39;100.00;99036.03;12806615;23;19951;-77
2022/09/15 04:28:40;;;;;;;;;;;;;;;16.43;100.00;99032.34;12806627;23;19920;-76
2022/09/15 04:33:44;;;;;;;;;;;;;;;16.47;100.00;99023.38;12806403;23;20339;-77
2022/09/15 04:38:49;;;;;;;;;;;;;;;16.48;100.00;99014.63;12806336;23;20228;-75
2022/09/15 04:43:52;;;;;;;;;;;;;;;16.52;100.00;99003.03;12805743;23;19999;-74
2022/09/15 04:48:57;;;;;;;;;;;;;;;16.47;100.00;99012.91;12806816;23;19947;-74
2022/09/15 04:54:00;;;;;;;;;;;;;;;16.46;100.00;99004.22;12805994;23;19948;-76
2022/09/15 04:59:03;;;;;;;;;;;;;;;16.40;100.00;99011.53;12806051;23;19920;-77
2022/09/15 05:04:07;;;;;;;;;;;;;;;16.43;100.00;99016.63;12805746;23;19927;-78
2022/09/15 05:09:12;;;;;;;;;;;;;;;16.46;100.00;99014.72;12805603;23;19927;-73
2022/09/15 05:14:15;;;;;;;;;;;;;;;16.50;100.00;99015.38;12805297;23;19963;-74
2022/09/15 05:19:20;;;;;;;;;;;;;;;16.50;100.00;99015.38;12805128;23;19924;-75
2022/09/15 05:24:23;;;;;;;;;;;;;;;16.47;100.00;99013.78;12799738;23;20333;-75
2022/09/15 05:29:26;;;;;;;;;;;;;;;16.51;100.00;99017.06;12799466;23;19920;-77
2022/09/15 05:34:30;;;;;;;;;;;;;;;16.57;100.00;99019.31;12799136;23;20387;-74
2022/09/15 05:39:33;;;;;;;;;;;;;;;16.58;100.00;99018.41;12798166;23;19954;-76
2022/09/15 05:44:36;;;;;;;;;;;;;;;16.58;100.00;99026.28;12797337;23;19924;-75
2022/09/15 05:49:41;;;;;;;;;;;;;;;16.64;100.00;99023.28;12796937;23;19921;-77
2022/09/15 05:54:44;;;;;;;;;;;;;;;16.61;100.00;99026.09;12797414;23;19955;-79
2022/09/15 05:59:47;;;;;;;;;;;;;;;16.64;100.00;99031.16;12797439;23;19962;-76
2022/09/15 06:04:51;;;;;;;;;;;;;;;16.61;100.00;99032.19;12797579;23;19920;-76
2022/09/15 06:09:54;;;;;;;;;;;;;;;16.68;100.00;99035.31;12797381;23;20010;-76
2022/09/15 06:14:58;;;;;;;;;;;;;;;16.65;100.00;99045.97;12796944;23;19955;-75
2022/09/15 06:20:05;;;;;;;;;;;;;;;16.69;100.00;99042.22;12796923;23;20003;-75
2022/09/15 06:25:10;;;;;;;;;;;;;;;16.71;100.00;99045.59;12800731;23;20312;-74
2022/09/15 06:30:13;;;;;;;;;;;;;;;16.75;100.00;99041.91;12796659;23;19974;-76
2022/09/15 06:35:18;;;;;;;;;;;;;;;16.77;98.65;99038.28;12797536;23;19947;-73
2022/09/15 06:40:21;;;;;;;;;;;;;;;16.88;97.76;99045.50;12797009;23;19955;-74
2022/09/15 06:45:24;;;;;;;;;;;;;;;16.98;96.79;99036.22;12796464;23;19962;-76
2022/09/15 06:50:29;;;;;;;;;;;;;;;16.97;95.27;99037.13;12798067;23;19920;-76
2022/09/15 06:55:32;;;;;;;;;;;;;;;16.94;93.73;99051.25;12799237;23;19983;-74
2022/09/15 07:00:36;;;;;;;;;;;;;;;17.02;93.19;99048.19;12797723;23;19947;-77
2022/09/15 07:05:40;;;;;;;;;;;;;;;17.06;92.10;99055.81;12796192;23;19967;-76
2022/09/15 07:10:44;;;;;;;;;;;;;;;17.12;91.15;99060.69;12795895;23;19955;-74
2022/09/15 07:15:51;;;;;;;;;;;;;;;17.13;89.96;99051.06;12795687;23;19935;-72
2022/09/15 07:20:59;;;;;;;;;;;;;;;17.15;89.10;99054.44;12801687;23;19952;-73
2022/09/15 07:26:07;;;;;;;;;;;;;;;17.21;88.22;99065.41;12795873;23;20003;-75
2022/09/15 07:31:11;;;;;;;;;;;;;;;17.21;87.65;99064.56;12796150;23;19920;-73
2022/09/15 07:36:16;;;;;;;;;;;;;;;17.14;87.17;99073.72;12796542;23;19996;-72
2022/09/15 07:41:20;;;;;;;;;;;;;;;17.18;86.91;99065.59;12795958;23;19963;-72
2022/09/15 07:46:25;;;;;;;;;;;;;;;17.40;86.06;99080.91;12799463;23;19963;-74
2022/09/15 07:51:30;;;;;;;;;;;;;;;17.30;85.41;99085.00;12800190;23;19959;-74
2022/09/15 07:56:33;;;;;;;;;;;;;;;17.21;85.43;99093.41;12800577;23;20003;-75
2022/09/15 08:01:36;;;;;;;;;;;;;;;17.12;85.28;99099.16;12802217;23;20376;-74
2022/09/15 08:06:40;;;;;;;;;;;;;;;17.31;84.80;99097.19;12800055;23;20018;-73
2022/09/15 08:11:43;;;;;;;;;;;;;;;17.41;83.60;99100.13;12799349;23;20315;-73
2022/09/15 08:16:46;;;;;;;;;;;;;;;17.57;83.53;99087.88;12799422;23;19944;-72
2022/09/15 08:21:51;;;;;;;;;;;;;;;17.71;82.86;99095.75;12800224;23;19959;-72
2022/09/15 08:26:54;;;;;;;;;;;;;;;17.65;82.10;99093.50;12799079;23;19924;-74
2022/09/15 08:31:58;;;;;;;;;;;;;;;17.60;81.77;99091.13;12799391;23;19924;-76
2022/09/15 08:37:03;;;;;;;;;;;;;;;17.59;80.52;99093.84;12798414;23;20261;-74
2022/09/15 08:42:06;;;;;;;;;;;;;;;17.61;78.94;99092.81;12799284;23;19948;-74
2022/09/15 08:47:12;;;;;;;;;;;;;;;17.69;77.92;99082.72;12805674;23;19932;-77
2022/09/15 08:52:21;;;;;;;;;;;;;;;17.81;76.38;99081.97;12806301;23;19983;-76
2022/09/15 08:57:25;;;;;;;;;;;;;;;17.85;74.70;99088.75;12812279;23;19943;-76
2022/09/15 09:02:41;;;;;;;;;;;;;;;17.98;73.67;99089.69;12805618;23;19946;-74
2022/09/15 09:07:58;;;;;;;;;;;;;;;18.09;73.59;99089.03;12805988;23;20006;-74
2022/09/15 09:13:07;;;;;;;;;;;;;;;18.27;72.90;99086.13;12805955;23;19920;-76
2022/09/15 09:18:22;;;;;;;;;;;;;;;18.49;72.17;99095.34;12804823;23;19963;-73
2022/09/15 09:23:28;;;;;;;;;;;;;;;18.73;70.54;99094.66;12809593;23;19921;-74
2022/09/15 09:28:32;;;;;;;;;;;;;;;18.97;70.86;99094.88;12804761;23;19975;-74
2022/09/15 09:33:39;;;;;;;;;;;;;;;19.19;70.12;99090.75;12804962;23;19987;-74
2022/09/15 09:38:51;;;;;;;;;;;;;;;19.27;66.93;99093.75;12808378;23;19920;-73
2022/09/15 09:43:55;;;;;;;;;;;;;;;19.54;66.05;99088.47;12804436;23;19958;-75
2022/09/15 09:49:01;;;;;;;;;;;;;;;20.11;62.70;99073.97;12804299;23;20336;-78
2022/09/15 09:54:09;;;;;;;;;;;;;;;20.65;62.94;99070.13;12808276;23;19974;-74
2022/09/15 09:59:33;;;;;;;;;;;;;;;21.16;61.48;99067.31;12803990;23;19928;-77
2022/09/15 10:04:36;;;;;;;;;;;;;;;21.53;60.11;99061.00;12803610;23;20201;-77
2022/09/15 10:09:48;;;;;;;;;;;;;;;21.67;58.70;99066.06;12804363;23;19974;-74
2022/09/15 10:14:53;;;;;;;;;;;;;;;21.95;57.86;99057.72;12824558;23;19978;-75
2022/09/15 10:19:57;;;;;;;;;;;;;;;21.98;56.51;99052.22;12804034;23;19958;-76
2022/09/15 10:25:01;;;;;;;;;;;;;;;22.02;54.77;99060.75;12802043;23;20002;-73
2022/09/15 10:30:16;;;;;;;;;;;;;;;21.73;56.02;99063.78;12796889;23;19924;-74
2022/09/15 10:35:20;;;;;;;;;;;;;;;22.09;54.90;99061.97;12799198;23;19991;-73
2022/09/15 10:40:31;;;;;;;;;;;;;;;21.97;54.85;99060.28;12797407;23;19952;-75
2022/09/15 10:45:37;;;;;;;;;;;;;;;22.50;54.15;99064.84;12804613;23;19920;-71
2022/09/15 10:50:45;;;;;;;;;;;;;;;22.52;54.56;99047.88;12803563;23;19920;-69
2022/09/15 10:55:56;;;;;;;;;;;;;;;21.92;56.07;99060.63;12823979;23;19925;-74
2022/09/15 11:01:04;;;;;;;;;;;;;;;21.53;55.62;99067.13;12824175;23;19974;-75
2022/09/15 11:06:15;;;;;;;;;;;;;;;21.11;56.03;99077.34;12802859;23;19932;-75
2022/09/15 11:11:22;;;;;;;;;;;;;;;20.79;56.86;99069.13;12803310;23;20014;-74
2022/09/15 11:16:29;;;;;;;;;;;;;;;20.61;57.97;99070.44;12823788;23;19983;-75
2022/09/15 11:21:34;;;;;;;;;;;;;;;20.55;58.15;99077.00;12822217;23;19951;-75
2022/09/15 11:26:42;;;;;;;;;;;;;;;20.40;58.41;99078.09;12820675;23;19990;-74
2022/09/15 11:31:48;;;;;;;;;;;;;;;20.46;58.82;99074.19;12800075;23;19924;-76
2022/09/15 11:36:54;;;;;;;;;;;;;;;20.50;59.11;99084.38;12820917;23;20003;-74
2022/09/15 11:42:03;;;;;;;;;;;;;;;20.69;58.93;99081.31;12820461;23;20339;-76
2022/09/15 11:47:10;;;;;;;;;;;;;;;20.79;59.26;99073.56;12820249;23;19924;-76
2022/09/15 11:52:21;;;;;;;;;;;;;;;20.68;60.04;99069.91;12799791;23;19924;-74
2022/09/15 11:57:30;;;;;;;;;;;;;;;20.49;60.03;99073.94;12820105;23;20324;-75
2022/09/15 12:02:38;;;;;;;;;;;;;;;20.14;59.75;99071.13;12820849;23;19944;-76
2022/09/15 12:07:43;;;;;;;;;;;;;;;20.03;60.42;99073.66;12801927;23;20002;-74
2022/09/15 12:12:50;;;;;;;;;;;;;;;19.85;61.29;99064.38;12801793;23;19920;-74
2022/09/15 12:17:59;;;;;;;;;;;;;;;19.97;61.80;99065.31;12826143;23;19920;-74
2022/09/15 12:23:21;;;;;;;;;;;;;;;20.03;62.15;99078.94;12806555;23;19928;-75
2022/09/15 12:28:36;;;;;;;;;;;;;;;20.02;62.59;99098.31;12805961;23;20018;-75
2022/09/15 12:33:43;;;;;;;;;;;;;;;19.89;62.85;99086.94;12824362;23;20328;-75
2022/09/15 12:38:47;;;;;;;;;;;;;;;19.84;62.85;99086.41;12805698;23;19928;-74
2022/09/15 12:43:54;;;;;;;;;;;;;;;20.02;62.71;99087.78;12800181;23;19947;-73
2022/09/15 12:49:00;;;;;;;;;;;;;;;19.90;63.63;99083.34;12819488;23;19962;-73
2022/09/15 12:54:07;;;;;;;;;;;;;;;19.65;63.76;99080.69;12817870;23;19920;-66
2022/09/15 12:59:14;;;;;;;;;;;;;;;19.59;64.15;99078.47;12817253;23;19935;-68
2022/09/15 13:04:26;;;;;;;;;;;;;;;19.48;64.73;99075.72;12810685;23;20011;-65
2022/09/15 13:09:29;;;;;;;;;;;;;;;19.82;64.51;99069.88;12798969;23;20224;-71
2022/09/15 13:14:36;;;;;;;;;;;;;;;20.03;64.39;99071.03;12798292;23;19924;-66
2022/09/15 13:19:42;;;;;;;;;;;;;;;19.97;64.68;99074.06;12812119;23;19955;-67
2022/09/15 13:24:48;;;;;;;;;;;;;;;19.89;64.51;99086.94;12813374;23;20216;-68
2022/09/15 13:30:00;;;;;;;;;;;;;;;19.76;64.33;99072.09;12818691;23;19940;-69
2022/09/15 13:35:24;;;;;;;;;;;;;;;19.78;64.03;99064.91;12818442;23;19970;-68
2022/09/15 13:40:38;;;;;;;;;;;;;;;19.73;63.49;99059.09;12816495;23;19971;-66
2022/09/15 13:46:01;;;;;;;;;;;;;;;19.94;62.91;99070.81;12816480;23;19928;-69
2022/09/15 13:51:09;;;;;;;;;;;;;;;19.90;63.43;99056.16;12814989;23;19932;-70
2022/09/15 13:56:16;;;;;;;;;;;;;;;19.73;63.29;99051.19;12814456;23;19924;-67
2022/09/15 14:01:22;;;;;;;;;;;;;;;19.64;63.66;99050.03;12814441;23;20201;-66
2022/09/15 14:06:29;;;;;;;;;;;;;;;19.56;63.87;99044.47;12810006;23;19956;-71
2022/09/15 14:11:33;;;;;;;;;;;;;;;19.58;63.96;99039.09;12813944;23;19924;-66
2022/09/15 14:16:48;;;;;;;;;;;;;;;19.70;64.10;99044.38;10537990;28;19923;-67
2022/09/15 14:21:52;;;;;;;;;;;;;;;19.79;64.12;99040.25;10536806;28;20348;-65
2022/09/15 14:27:07;;;;;;;;;;;;;;;19.77;64.43;99037.75;10537020;28;20062;-68
2022/09/15 14:32:14;;;;;;;;;;;;;;;19.66;65.02;99036.75;10536043;28;20019;-67
2022/09/15 14:37:20;;;;;;;;;;;;;;;19.47;65.52;99029.28;10536670;28;19924;-67
2022/09/15 14:42:28;;;;;;;;;;;;;;;19.51;65.79;99028.13;10535283;28;19970;-66
2022/09/15 14:47:32;;;;;;;;;;;;;;;19.56;65.49;99023.41;10536027;28;20007;-68
2022/09/15 14:52:37;;;;;;;;;;;;;;;19.68;65.32;99019.09;10535247;28;19929;-66
2022/09/15 14:57:43;;;;;;;;;;;;;;;19.65;65.61;99012.25;10536314;28;19939;-68
2022/09/15 15:02:57;;;;;;;;;;;;;;;19.52;66.16;99009.59;10504574;28;20028;-67
2022/09/15 15:08:01;;;;;;;;;;;;;;;19.58;66.57;99007.50;10508566;28;19935;-69
2022/09/15 15:13:05;;;;;;;;;;;;;;;19.52;66.01;99003.50;10546203;28;19924;-67
2022/09/15 15:18:23;;;;;;;;;;;;;;;19.50;65.92;99008.00;10576927;28;20264;-67
2022/09/15 15:23:44;;;;;;;;;;;;;;;19.34;66.19;98996.84;10573288;28;20011;-67
2022/09/15 15:28:48;;;;;;;;;;;;;;;19.30;67.02;98987.47;10545473;28;20007;-70
2022/09/15 15:33:52;;;;;;;;;;;;;;;19.21;67.53;98977.53;10506947;28;19959;-68
2022/09/15 15:38:58;;;;;;;;;;;;;;;19.21;68.11;98990.69;10506417;28;19981;-64
2022/09/15 15:44:06;;;;;;;;;;;;;;;19.08;68.61;98987.19;10506244;28;19960;-65
2022/09/15 15:49:09;;;;;;;;;;;;;;;19.10;69.05;99001.91;10518489;28;19985;-70
2022/09/15 15:54:14;;;;;;;;;;;;;;;18.97;69.94;98994.94;10505990;28;19964;-69
2022/09/15 15:59:17;;;;;;;;;;;;;;;18.92;70.92;98997.88;10505299;28;20003;-77
2022/09/15 16:04:21;;;;;;;;;;;;;;;18.85;71.33;99006.25;10526455;28;20364;-79
2022/09/15 16:09:25;;;;;;;;;;;;;;;18.81;71.85;98997.72;10547053;28;19931;-79
2022/09/15 16:14:28;;;;;;;;;;;;;;;18.81;72.27;99008.25;10546763;28;19924;-78
2022/09/15 16:19:31;;;;;;;;;;;;;;;18.76;72.78;99012.13;10546842;28;19928;-79
2022/09/15 16:24:36;;;;;;;;;;;;;;;18.66;73.47;99001.34;10546504;28;20010;-77
2022/09/15 16:29:39;;;;;;;;;;;;;;;18.59;74.26;99009.72;10546150;28;20023;-77
2022/09/15 16:34:42;;;;;;;;;;;;;;;18.47;74.79;99010.50;10546162;28;19942;-77
2022/09/15 16:39:46;;;;;;;;;;;;;;;18.43;75.03;99018.59;10544944;28;19944;-76
2022/09/15 16:44:49;;;;;;;;;;;;;;;18.36;75.53;99019.88;10546147;28;20003;-78
2022/09/15 16:49:52;;;;;;;;;;;;;;;18.32;75.97;99023.66;10544083;28;20275;-78
2022/09/15 16:54:56;;;;;;;;;;;;;;;18.23;76.38;99026.00;10518484;28;19924;-70
2022/09/15 17:00:00;;;;;;;;;;;;;;;18.16;76.89;99028.19;9816678;28;10000710;-69
2022/09/15 17:05:03;;;;;;;;;;;;;;;18.13;77.35;99036.25;10538718;28;19928;-69
2022/09/15 17:10:08;;;;;;;;;;;;;;;18.06;78.00;99037.56;10538906;28;19934;-70
2022/09/15 17:15:17;;;;;;;;;;;;;;;17.98;78.34;99029.28;10538398;28;20173;-70
2022/09/15 17:20:21;;;;;;;;;;;;;;;18.05;78.71;99035.88;10538946;28;20454;-75
2022/09/15 17:25:27;;;;;;;;;;;;;;;17.97;79.33;99039.91;10538102;28;19924;-75
2022/09/15 17:30:31;;;;;;;;;;;;;;;17.91;79.53;99048.16;10537753;28;19924;-70
2022/09/15 17:35:34;;;;;;;;;;;;;;;17.84;80.13;99042.44;10537530;28;19935;-70
2022/09/15 17:40:39;;;;;;;;;;;;;;;17.77;80.90;99042.91;10537893;28;19931;-71
2022/09/15 17:45:42;;;;;;;;;;;;;;;17.70;81.32;99042.44;10537715;28;19936;-78
2022/09/15 17:50:47;;;;;;;;;;;;;;;17.67;81.66;99042.59;10538275;28;19932;-80
2022/09/15 17:55:53;;;;;;;;;;;;;;;17.65;82.16;99047.09;10538390;28;19963;-78
2022/09/15 18:00:57;;;;;;;;;;;;;;;17.66;82.44;99048.78;10537957;28;20394;-79
2022/09/15 18:06:02;;;;;;;;;;;;;;;17.63;82.86;99056.84;10539639;28;19924;-78
2022/09/15 18:11:07;;;;;;;;;;;;;;;17.60;83.57;99050.94;10540984;28;20406;-77
2022/09/15 18:16:11;;;;;;;;;;;;;;;17.53;83.98;99058.34;10540366;28;19981;-77
2022/09/15 18:21:23;;;;;;;;;;;;;;;17.53;83.95;99057.47;10539222;28;19928;-81
2022/09/15 18:26:28;;;;;;;;;;;;;;;17.38;84.87;99055.72;10537125;28;19935;-79
2022/09/15 18:31:31;;;;;;;;;;;;;;;17.38;85.07;99055.72;10537584;28;19928;-79
2022/09/15 18:36:35;;;;;;;;;;;;;;;17.33;85.32;99054.22;10537964;28;20024;-79
2022/09/15 18:41:40;;;;;;;;;;;;;;;17.32;85.77;99054.31;10537132;28;19935;-79
2022/09/15 18:46:44;;;;;;;;;;;;;;;17.25;86.29;99052.97;10520920;28;19964;-79
2022/09/15 18:51:48;;;;;;;;;;;;;;;17.22;86.92;99053.97;10538104;28;19935;-81
2022/09/15 18:56:55;;;;;;;;;;;;;;;17.28;87.04;99056.25;10541897;28;20670;-79
2022/09/15 19:01:58;;;;;;;;;;;;;;;17.36;87.09;99061.03;10584813;28;19970;-77
2022/09/15 19:07:01;;;;;;;;;;;;;;;17.35;87.30;99059.38;10587325;28;20011;-77
2022/09/15 19:12:06;;;;;;;;;;;;;;;17.39;87.42;99058.25;10586251;28;19980;-74
2022/09/15 19:17:09;;;;;;;;;;;;;;;17.30;87.86;99061.41;10585644;28;20022;-78
2022/09/15 19:22:12;;;;;;;;;;;;;;;17.22;88.41;99063.66;10586332;28;20398;-75
2022/09/15 19:27:16;;;;;;;;;;;;;;;17.29;88.32;99057.94;10586351;28;19923;-75
2022/09/15 19:32:19;;;;;;;;;;;;;;;17.38;87.50;99066.22;10587276;28;19970;-67
2022/09/15 19:37:22;;;;;;;;;;;;;;;17.36;87.90;99073.34;10586078;28;20022;-67
2022/09/15 19:42:27;;;;;;;;;;;;;;;17.32;88.08;99072.66;10585334;28;20006;-67
2022/09/15 19:47:30;;;;;;;;;;;;;;;17.28;88.42;99074.63;10584195;28;20362;-69
2022/09/15 19:52:33;;;;;;;;;;;;;;;17.41;87.98;99073.91;10583847;28;19934;-66
2022/09/15 19:57:39;;;;;;;;;;;;;;;17.29;88.50;99073.66;10583839;28;20018;-66
2022/09/15 20:02:42;;;;;;;;;;;;;;;17.29;88.84;99075.47;10585381;28;20393;-67
2022/09/15 20:07:46;;;;;;;;;;;;;;;17.38;88.49;99069.66;10543395;28;19928;-67
2022/09/15 20:12:51;;;;;;;;;;;;;;;17.36;88.22;99082.03;10540579;28;19928;-67
2022/09/15 20:17:55;;;;;;;;;;;;;;;17.39;88.14;99091.50;10540879;28;19942;-65
2022/09/15 20:22:59;;;;;;;;;;;;;;;17.36;88.39;99082.03;10540763;28;20375;-66
2022/09/15 20:28:03;;;;;;;;;;;;;;;17.34;88.61;99089.16;10540788;28;19927;-67
2022/09/15 20:33:07;;;;;;;;;;;;;;;17.31;88.54;99084.06;10540840;28;20001;-65
2022/09/15 20:38:10;;;;;;;;;;;;;;;17.28;88.89;99079.00;10540566;28;19939;-79
2022/09/15 20:43:15;;;;;;;;;;;;;;;17.13;88.98;99069.41;10540457;28;20036;-76
2022/09/15 20:48:18;;;;;;;;;;;;;;;17.04;89.24;99086.50;10541466;28;20015;-79
2022/09/15 20:53:22;;;;;;;;;;;;;;;16.98;89.34;99084.22;10542357;28;20300;-79
2022/09/15 20:58:27;;;;;;;;;;;;;;;16.96;89.38;99098.34;10558433;28;19967;-76
2022/09/15 21:03:31;;;;;;;;;;;;;;;16.95;89.14;99094.03;10582679;28;20031;-76
2022/09/15 21:08:35;;;;;;;;;;;;;;;16.94;88.69;99093.22;10581458;28;20097;-76
2022/09/15 21:13:42;;;;;;;;;;;;;;;17.00;88.04;99094.63;10581471;28;19971;-76
2022/09/15 21:18:46;;;;;;;;;;;;;;;16.93;88.21;99093.25;10581697;28;20046;-76
2022/09/15 21:23:51;;;;;;;;;;;;;;;16.82;88.23;99096.50;10580196;28;19927;-77
2022/09/15 21:28:57;;;;;;;;;;;;;;;16.79;88.50;99107.13;10580567;28;20011;-75
2022/09/15 21:34:00;;;;;;;;;;;;;;;16.70;88.95;99107.66;10581508;28;20248;-76
2022/09/15 21:39:03;;;;;;;;;;;;;;;16.67;89.31;99112.22;10580091;28;19967;-76
2022/09/15 21:44:08;;;;;;;;;;;;;;;16.73;89.02;99112.72;10579947;28;19923;-76
2022/09/15 21:49:11;;;;;;;;;;;;;;;16.63;89.10;99115.94;10580375;28;19924;-77
2022/09/15 21:54:15;;;;;;;;;;;;;;;16.59;89.65;99123.13;10580166;28;19985;-77
2022/09/15 21:59:19;;;;;;;;;;;;;;;16.64;89.30;99128.09;10555011;28;19974;-77
2022/09/15 22:04:23;;;;;;;;;;;;;;;16.55;89.50;99137.28;10537453;28;20013;-76
2022/09/15 22:09:26;;;;;;;;;;;;;;;16.61;89.05;99139.59;10538010;28;19929;-78
2022/09/15 22:14:32;;;;;;;;;;;;;;;16.51;89.14;99132.31;10538551;28;20416;-77
2022/09/15 22:19:35;;;;;;;;;;;;;;;16.52;89.47;99145.31;10539498;28;19952;-78
2022/09/15 22:24:39;;;;;;;;;;;;;;;16.46;89.64;99148.28;10538029;28;20022;-78
2022/09/15 22:29:43;;;;;;;;;;;;;;;16.38;90.03;99147.81;10537561;28;19967;-78
2022/09/15 22:34:48;;;;;;;;;;;;;;;16.45;90.00;99153.56;10539495;28;20387;-77
2022/09/15 22:39:51;;;;;;;;;;;;;;;16.33;90.33;99159.44;10545152;28;19963;-77
2022/09/15 22:45:02;;;;;;;;;;;;;;;16.28;90.81;99156.22;10545139;28;20014;-78
2022/09/15 22:50:06;;;;;;;;;;;;;;;16.16;91.41;99163.81;10545027;28;20012;-78
2022/09/15 22:55:09;;;;;;;;;;;;;;;16.04;91.95;99164.44;10547653;28;19981;-75
2022/09/15 23:00:15;;;;;;;;;;;;;;;15.97;92.81;99162.19;10548926;28;19924;-78
2022/09/15 23:05:18;;;;;;;;;;;;;;;15.91;93.11;99171.19;10550072;28;20007;-76
2022/09/15 23:10:21;;;;;;;;;;;;;;;15.92;93.22;99169.44;10550468;28;20007;-78
2022/09/15 23:15:25;;;;;;;;;;;;;;;15.80;93.95;99164.81;10194669;28;10000480;-78
2022/09/15 23:20:28;;;;;;;;;;;;;;;15.70;94.42;99168.81;10546078;28;19985;-76
2022/09/15 23:25:31;;;;;;;;;;;;;;;15.60;95.50;99183.28;10544202;28;20252;-77
2022/09/15 23:30:38;;;;;;;;;;;;;;;15.67;96.51;99174.22;10543300;28;20356;-76
2022/09/15 23:35:41;;;;;;;;;;;;;;;15.76;95.97;99163.28;10543884;28;20027;-75
2022/09/15 23:40:44;;;;;;;;;;;;;;;15.75;96.51;99166.81;10543488;28;19924;-76
2022/09/15 23:45:49;;;;;;;;;;;;;;;15.60;95.41;99167.59;10542540;28;20024;-78
2022/09/15 23:50:53;;;;;;;;;;;;;;;15.45;96.51;99179.63;10543424;28;19952;-75
2022/09/15 23:55:56;;;;;;;;;;;;;;;15.34;98.27;99181.06;10542423;28;20066;-75
